createdAt,value
2018-06-10T00:00:41.859Z,30.53
2018-06-10T00:03:10.257Z,39.63
2018-06-10T00:05:38.684Z,30.27
2018-06-10T00:08:07.089Z,29.60
2018-06-10T00:10:35.486Z,39.27
2018-06-10T00:13:04.152Z,26.90
2018-06-10T00:15:32.551Z,30.30
2018-06-10T00:18:01.257Z,27.80
2018-06-10T00:20:29.830Z,26.90
2018-06-10T00:22:59.359Z,26.63
2018-06-10T00:25:27.767Z,27.97
2018-06-10T00:27:58.873Z,22.50
2018-06-10T00:30:27.324Z,29.10
2018-06-10T00:32:55.751Z,24.20
2018-06-10T00:35:24.204Z,24.57
2018-06-10T00:37:52.635Z,23.90
2018-06-10T00:40:21.074Z,31.63
2018-06-10T00:42:49.488Z,29.73
2018-06-10T00:45:17.869Z,27.30
2018-06-10T00:47:46.293Z,24.80
2018-06-10T00:50:14.756Z,23.33
2018-06-10T00:52:43.218Z,29.07
2018-06-10T00:55:11.787Z,28.33
2018-06-10T00:57:40.271Z,29.67
2018-06-10T01:00:09.483Z,25.90
2018-06-10T01:02:37.872Z,29.07
2018-06-10T01:05:06.299Z,23.87
2018-06-10T01:07:35.583Z,25.17
2018-06-10T01:10:04.045Z,22.30
2018-06-10T01:12:32.467Z,27.77
2018-06-10T01:15:00.838Z,26.87
2018-06-10T01:17:29.255Z,28.47
2018-06-10T01:19:57.712Z,27.13
2018-06-10T01:22:26.178Z,26.90
2018-06-10T01:24:54.688Z,28.27
2018-06-10T01:27:25.751Z,24.40
2018-06-10T01:29:54.201Z,25.60
2018-06-10T01:32:23.586Z,31.63
2018-06-10T01:34:52.027Z,24.33
2018-06-10T01:37:20.427Z,22.87
2018-06-10T01:39:48.810Z,27.23
2018-06-10T01:42:17.220Z,23.57
2018-06-10T01:44:45.638Z,24.20
2018-06-10T01:47:14.115Z,29.53
2018-06-10T01:49:42.526Z,18.60
2018-06-10T01:52:10.926Z,20.37
2018-06-10T01:54:40.306Z,27.03
2018-06-10T01:57:08.688Z,23.77
2018-06-10T01:59:37.927Z,21.40
2018-06-10T02:02:06.384Z,19.37
2018-06-10T02:04:34.855Z,20.10
2018-06-10T02:07:03.292Z,19.00
2018-06-10T02:09:31.680Z,19.07
2018-06-10T02:12:00.152Z,22.47
2018-06-10T02:14:28.575Z,25.10
2018-06-10T02:16:56.978Z,20.00
2018-06-10T02:19:25.421Z,21.30
2018-06-10T02:21:53.828Z,19.07
2018-06-10T02:24:22.238Z,16.07
2018-06-10T02:26:51.397Z,26.07
2018-06-10T02:29:19.888Z,19.50
2018-06-10T02:31:51.066Z,17.80
2018-06-10T02:34:19.454Z,18.03
2018-06-10T02:36:47.874Z,16.70
2018-06-10T02:39:16.268Z,21.10
2018-06-10T02:41:44.733Z,20.60
2018-06-10T02:44:13.211Z,20.33
2018-06-10T02:46:41.600Z,18.20
2018-06-10T02:49:10.037Z,18.73
2018-06-10T02:51:38.460Z,22.93
2018-06-10T02:54:06.920Z,20.77
2018-06-10T02:56:35.327Z,21.87
2018-06-10T02:59:04.495Z,25.70
2018-06-10T03:01:32.903Z,28.07
2018-06-10T03:04:02.522Z,26.57
2018-06-10T03:06:31.237Z,25.27
2018-06-10T03:08:59.676Z,20.53
2018-06-10T03:11:28.106Z,21.67
2018-06-10T03:13:56.524Z,24.90
2018-06-10T03:16:24.916Z,23.77
2018-06-10T03:18:53.021Z,22.37
2018-06-10T03:21:21.992Z,21.43
2018-06-10T03:23:50.418Z,21.37
2018-06-10T03:26:18.806Z,19.43
2018-06-10T03:28:47.190Z,22.50
2018-06-10T03:31:16.742Z,21.87
2018-06-10T03:33:45.146Z,20.17
2018-06-10T03:36:13.586Z,22.00
2018-06-10T03:38:42.020Z,18.20
2018-06-10T03:41:10.385Z,20.60
2018-06-10T03:43:38.799Z,33.67
2018-06-10T03:46:07.320Z,27.37
2018-06-10T03:48:35.731Z,20.13
2018-06-10T03:51:04.179Z,25.03
2018-06-10T03:53:32.799Z,22.50
2018-06-10T03:56:01.337Z,21.50
2018-06-10T03:58:29.828Z,19.90
2018-06-10T04:00:58.229Z,22.80
2018-06-10T04:03:28.199Z,22.10
2018-06-10T04:05:56.283Z,20.63
2018-06-10T04:08:24.691Z,31.53
2018-06-10T04:10:53.090Z,23.33
2018-06-10T04:13:21.486Z,18.57
2018-06-10T04:15:49.542Z,24.30
2018-06-10T04:18:17.940Z,28.40
2018-06-10T04:20:46.355Z,22.70
2018-06-10T04:23:14.793Z,18.50
2018-06-10T04:25:43.191Z,19.97
2018-06-10T04:28:11.881Z,29.03
2018-06-10T04:30:41.163Z,26.27
2018-06-10T04:33:09.540Z,26.10
2018-06-10T04:38:11.339Z,27.07
2018-06-10T04:40:39.793Z,30.37
2018-06-10T04:43:08.785Z,28.17
2018-06-10T04:45:37.254Z,23.43
2018-06-10T04:48:05.709Z,32.27
2018-06-10T04:50:34.096Z,31.37
2018-06-10T04:53:02.563Z,37.97
2018-06-10T04:55:30.940Z,41.73
2018-06-10T04:57:59.343Z,35.40
2018-06-10T05:00:27.918Z,32.50
2018-06-10T05:02:56.335Z,35.20
2018-06-10T05:05:24.716Z,44.27
2018-06-10T05:07:56.234Z,44.13
2018-06-10T05:10:24.665Z,47.07
2018-06-10T05:12:53.044Z,42.00
2018-06-10T05:15:21.492Z,40.50
2018-06-10T05:17:49.909Z,56.27
2018-06-10T05:20:18.316Z,64.83
2018-06-10T05:22:46.730Z,64.67
2018-06-10T05:25:14.800Z,76.63
2018-06-10T05:27:43.207Z,60.53
2018-06-10T05:30:11.648Z,60.27
2018-06-10T05:32:40.047Z,59.33
2018-06-10T05:35:11.530Z,59.93
2018-06-10T05:37:40.028Z,68.27
2018-06-10T05:40:10.376Z,68.77
2018-06-10T05:42:38.683Z,59.27
2018-06-10T05:45:07.072Z,54.30
2018-06-10T05:47:35.532Z,59.63
2018-06-10T05:50:04.088Z,58.57
2018-06-10T05:52:32.537Z,50.27
2018-06-10T05:55:00.938Z,63.57
2018-06-10T05:57:30.008Z,67.67
2018-06-10T05:59:58.435Z,59.43
2018-06-10T06:02:27.128Z,72.17
2018-06-10T06:04:55.567Z,59.87
2018-06-10T06:07:23.974Z,71.20
2018-06-10T06:09:52.362Z,73.67
2018-06-10T06:12:22.451Z,73.57
2018-06-10T06:14:50.876Z,71.60
2018-06-10T06:17:19.390Z,77.27
2018-06-10T06:19:47.787Z,69.63
2018-06-10T06:22:16.194Z,68.07
2018-06-10T06:24:44.815Z,57.03
2018-06-10T06:27:13.261Z,70.40
2018-06-10T06:29:42.703Z,61.47
2018-06-10T06:32:11.104Z,70.70
2018-06-10T06:34:39.525Z,66.87
2018-06-10T06:37:07.969Z,64.00
2018-06-10T06:39:36.398Z,63.97
2018-06-10T06:42:04.826Z,65.23
2018-06-10T06:44:34.931Z,69.43
2018-06-10T06:47:03.873Z,74.40
2018-06-10T06:49:32.347Z,67.73
2018-06-10T06:52:00.772Z,67.43
2018-06-10T06:54:29.209Z,61.00
2018-06-10T06:56:57.693Z,57.63
2018-06-10T06:59:26.157Z,54.00
2018-06-10T07:01:54.623Z,58.53
2018-06-10T07:04:23.013Z,61.70
2018-06-10T07:06:51.463Z,50.43
2018-06-10T07:09:19.872Z,49.00
2018-06-10T07:11:50.284Z,44.18
2018-06-10T07:14:18.656Z,44.53
2018-06-10T07:16:49.267Z,41.15
2018-06-10T07:19:17.709Z,40.63
2018-06-10T07:21:46.193Z,49.95
2018-06-10T07:24:14.656Z,39.88
2018-06-10T07:26:43.077Z,37.30
2018-06-10T07:29:11.529Z,39.30
2018-06-10T07:31:39.966Z,35.30
2018-06-10T07:34:08.398Z,39.90
2018-06-10T07:36:36.832Z,40.12
2018-06-10T07:39:08.593Z,40.98
2018-06-10T07:41:37.344Z,42.13
2018-06-10T07:44:05.776Z,39.67
2018-06-10T07:46:34.561Z,41.25
2018-06-10T07:49:04.159Z,46.73
2018-06-10T07:51:32.677Z,53.08
2018-06-10T07:54:01.188Z,50.28
2018-06-10T07:56:29.669Z,45.75
2018-06-10T07:59:01.034Z,47.40
2018-06-10T08:01:29.475Z,53.42
2018-06-10T08:03:57.928Z,51.23
2018-06-10T08:06:26.374Z,57.08
2018-06-10T08:08:54.880Z,61.50
2018-06-10T08:11:23.294Z,58.93
2018-06-10T08:13:51.711Z,59.27
2018-06-10T08:16:20.171Z,58.73
2018-06-10T08:18:48.731Z,66.87
2018-06-10T08:21:17.282Z,66.90
2018-06-10T08:23:45.751Z,71.37
2018-06-10T08:26:16.154Z,73.80
2018-06-10T08:28:44.648Z,63.87
2018-06-10T08:31:13.160Z,56.40
2018-06-10T08:33:41.605Z,51.90
2018-06-10T08:36:10.041Z,54.23
2018-06-10T08:38:38.668Z,60.20
2018-06-10T08:41:07.102Z,55.40
2018-06-10T08:43:35.620Z,54.43
2018-06-10T08:46:04.028Z,57.73
2018-06-10T08:48:32.635Z,54.97
2018-06-10T08:51:01.635Z,51.70
2018-06-10T08:53:30.103Z,52.53
2018-06-10T08:55:58.953Z,53.60
2018-06-10T08:58:34.311Z,55.30
2018-06-10T09:01:02.745Z,55.97
2018-06-10T09:03:34.489Z,54.83
2018-06-10T09:06:02.967Z,53.80
2018-06-10T09:08:32.605Z,63.27
2018-06-10T09:11:01.138Z,50.77
2018-06-10T09:13:29.584Z,53.20
2018-06-10T09:15:58.011Z,55.90
2018-06-10T09:18:27.207Z,56.13
2018-06-10T09:20:55.656Z,53.67
2018-06-10T09:23:24.078Z,55.47
2018-06-10T09:25:52.530Z,56.07
2018-06-10T09:28:20.986Z,53.10
2018-06-10T09:30:49.432Z,65.53
2018-06-10T09:33:17.872Z,59.47
2018-06-10T09:35:49.508Z,53.07
2018-06-10T09:38:17.916Z,57.50
2018-06-10T09:40:49.706Z,57.90
2018-06-10T09:43:18.142Z,51.50
2018-06-10T09:45:46.592Z,58.53
2018-06-10T09:48:15.040Z,58.10
2018-06-10T09:50:43.464Z,58.27
2018-06-10T09:53:11.913Z,57.80
2018-06-10T09:55:40.521Z,57.73
2018-06-10T09:58:08.833Z,55.57
2018-06-10T10:00:37.268Z,61.80
2018-06-10T10:03:05.767Z,59.50
2018-06-10T10:05:35.129Z,54.90
2018-06-10T10:08:03.627Z,59.47
2018-06-10T10:10:32.656Z,60.57
2018-06-10T10:13:04.059Z,62.93
2018-06-10T10:15:33.220Z,67.50
2018-06-10T10:18:06.497Z,59.63
2018-06-10T10:20:34.950Z,66.37
2018-06-10T10:23:03.438Z,69.70
2018-06-10T10:25:32.104Z,67.50
2018-06-10T10:28:01.028Z,66.40
2018-06-10T10:30:29.485Z,65.80
2018-06-10T10:32:58.693Z,61.50
2018-06-10T10:35:28.141Z,64.53
2018-06-10T10:37:56.582Z,64.27
2018-06-10T10:40:25.061Z,70.53
2018-06-10T10:42:53.527Z,70.27
2018-06-10T10:45:22.083Z,78.23
2018-06-10T10:47:50.503Z,69.87
2018-06-10T10:50:21.506Z,67.67
2018-06-10T10:52:49.919Z,71.73
2018-06-10T10:55:19.479Z,66.60
2018-06-10T10:57:48.002Z,68.97
2018-06-10T11:00:16.466Z,73.60
2018-06-10T11:02:45.036Z,63.90
2018-06-10T11:05:25.786Z,67.87
2018-06-10T11:07:55.390Z,73.50
2018-06-10T11:10:24.458Z,73.90
2018-06-10T11:12:52.958Z,63.47
2018-06-10T11:15:21.371Z,68.77
2018-06-10T11:17:50.016Z,68.60
2018-06-10T11:20:18.579Z,70.83
2018-06-10T11:22:47.343Z,70.97
2018-06-10T11:25:22.227Z,70.40
2018-06-10T11:27:51.770Z,74.67
2018-06-10T11:30:20.246Z,77.07
2018-06-10T11:32:54.799Z,65.87
2018-06-10T11:35:24.530Z,69.73
2018-06-10T11:37:52.958Z,72.63
2018-06-10T11:40:21.609Z,78.73
2018-06-10T11:42:50.078Z,76.27
2018-06-10T11:45:18.828Z,69.60
2018-06-10T11:47:47.456Z,79.23
2018-06-10T11:50:15.953Z,79.30
2018-06-10T11:52:44.770Z,85.93
2018-06-10T11:55:13.250Z,84.80
2018-06-10T11:57:41.793Z,86.20
2018-06-10T12:00:10.295Z,94.63
2018-06-10T12:02:40.525Z,97.23
2018-06-10T12:05:09.241Z,99.53
2018-06-10T12:07:39.741Z,95.33
2018-06-10T12:10:08.227Z,95.97
2018-06-10T12:12:36.791Z,96.90
2018-06-10T12:15:05.258Z,87.77
2018-06-10T12:17:33.977Z,85.30
2018-06-10T12:20:02.562Z,90.27
2018-06-10T12:22:31.074Z,80.70
2018-06-10T12:24:59.949Z,88.73
2018-06-10T12:27:28.631Z,82.83
2018-06-10T12:29:57.411Z,67.10
2018-06-10T12:32:26.132Z,83.53
2018-06-10T12:34:56.431Z,72.53
2018-06-10T12:37:25.013Z,75.80
2018-06-10T12:39:53.625Z,66.30
2018-06-10T12:42:22.130Z,71.47
2018-06-10T12:44:50.536Z,74.97
2018-06-10T12:47:19.098Z,59.10
2018-06-10T12:49:47.543Z,58.30
2018-06-10T12:52:16.040Z,57.30
2018-06-10T12:54:44.957Z,55.23
2018-06-10T12:57:13.565Z,59.93
2018-06-10T12:59:41.989Z,57.62
2018-06-10T13:02:10.524Z,62.83
2018-06-10T13:04:39.940Z,60.73
2018-06-10T13:07:08.432Z,61.17
2018-06-10T13:09:37.040Z,58.20
2018-06-10T13:12:06.048Z,46.33
2018-06-10T13:14:34.647Z,52.70
2018-06-10T13:17:03.255Z,53.35
2018-06-10T13:19:31.715Z,49.77
2018-06-10T13:22:00.459Z,54.03
2018-06-10T13:24:29.180Z,49.17
2018-06-10T13:26:57.881Z,51.27
2018-06-10T13:29:26.684Z,49.90
2018-06-10T13:31:55.361Z,45.60
2018-06-10T13:34:27.518Z,55.43
2018-06-10T13:36:56.036Z,44.47
2018-06-10T13:39:24.568Z,47.17
2018-06-10T13:41:52.955Z,46.15
2018-06-10T13:44:21.427Z,53.83
2018-06-10T13:46:50.039Z,50.80
2018-06-10T13:49:18.556Z,48.27
2018-06-10T13:51:47.003Z,41.23
2018-06-10T13:54:15.406Z,49.60
2018-06-10T13:56:43.901Z,38.87
2018-06-10T13:59:12.437Z,49.30
2018-06-10T14:01:40.883Z,38.57
2018-06-10T14:04:09.342Z,43.87
2018-06-10T14:06:38.817Z,39.35
2018-06-10T14:09:07.020Z,43.00
2018-06-10T14:11:36.117Z,36.43
2018-06-10T14:14:04.616Z,39.37
2018-06-10T14:16:33.788Z,36.03
2018-06-10T14:19:02.179Z,34.20
2018-06-10T14:21:30.957Z,36.25
2018-06-10T14:23:59.534Z,38.00
2018-06-10T14:26:28.324Z,40.98
2018-06-10T14:28:57.158Z,30.47
2018-06-10T14:31:25.664Z,34.88
2018-06-10T14:33:54.480Z,34.17
2018-06-10T14:36:23.015Z,34.98
2018-06-10T14:38:53.116Z,32.80
2018-06-10T14:41:21.543Z,49.90
2018-06-10T14:43:49.998Z,37.42
2018-06-10T14:46:18.565Z,39.08
2018-06-10T14:48:47.059Z,35.38
2018-06-10T14:51:15.547Z,37.80
2018-06-10T14:53:43.980Z,38.60
2018-06-10T14:56:12.483Z,29.10
2018-06-10T14:58:40.998Z,39.90
2018-06-10T15:01:09.494Z,35.55
2018-06-10T15:03:37.960Z,32.73
2018-06-10T15:06:12.142Z,33.80
2018-06-10T15:08:40.666Z,35.30
2018-06-10T15:11:10.229Z,34.95
2018-06-10T15:13:38.800Z,26.55
2018-06-10T15:16:07.384Z,35.83
2018-06-10T15:18:35.876Z,35.63
2018-06-10T15:21:05.556Z,38.03
2018-06-10T15:23:34.004Z,29.27
2018-06-10T15:26:02.472Z,33.33
2018-06-10T15:28:31.730Z,38.33
2018-06-10T15:31:00.157Z,33.47
2018-06-10T15:33:28.608Z,42.83
2018-06-10T15:35:58.117Z,37.10
2018-06-10T15:38:26.563Z,35.07
2018-06-10T15:40:55.041Z,38.15
2018-06-10T15:43:24.543Z,31.12
2018-06-10T15:45:52.992Z,35.50
2018-06-10T15:48:23.967Z,35.47
2018-06-10T15:50:52.411Z,34.70
2018-06-10T15:55:56.233Z,38.90
2018-06-10T15:58:24.843Z,38.07
2018-06-10T16:00:53.310Z,38.03
2018-06-10T16:03:21.809Z,39.50
2018-06-10T16:05:50.310Z,43.37
2018-06-10T16:08:18.762Z,35.70
2018-06-10T16:10:47.235Z,44.17
2018-06-10T16:13:15.765Z,37.77
2018-06-10T16:15:44.213Z,34.83
2018-06-10T16:18:12.708Z,36.80
2018-06-10T16:20:41.141Z,37.63
2018-06-10T16:23:09.664Z,40.17
2018-06-10T16:25:38.465Z,34.20
2018-06-10T16:28:06.957Z,32.37
2018-06-10T16:30:35.437Z,37.67
2018-06-10T16:33:04.029Z,35.70
2018-06-10T16:35:32.480Z,31.37
2018-06-10T16:38:00.904Z,32.53
2018-06-10T16:40:29.024Z,31.07
2018-06-10T16:42:57.620Z,32.23
2018-06-10T16:45:26.093Z,31.93
2018-06-10T16:47:54.555Z,31.77
2018-06-10T16:50:23.079Z,29.93
2018-06-10T16:52:51.800Z,31.87
2018-06-10T16:55:20.306Z,28.60
2018-06-10T16:57:49.012Z,23.83
2018-06-10T17:00:17.548Z,23.73
2018-06-10T17:02:46.073Z,27.93
2018-06-10T17:05:14.607Z,25.63
2018-06-10T17:07:43.083Z,30.63
2018-06-10T17:10:11.563Z,24.60
2018-06-10T17:12:40.028Z,23.37
2018-06-10T17:15:08.502Z,26.47
2018-06-10T17:17:36.980Z,22.53
2018-06-10T17:20:05.537Z,26.93
2018-06-10T17:22:34.218Z,25.03
2018-06-10T17:25:03.355Z,23.53
2018-06-10T17:27:31.912Z,21.00
2018-06-10T17:30:00.531Z,22.97
2018-06-10T17:32:29.028Z,22.03
2018-06-10T17:34:57.494Z,22.43
2018-06-10T17:37:26.090Z,24.87
2018-06-10T17:39:54.520Z,19.77
2018-06-10T17:42:24.193Z,21.83
2018-06-10T17:44:52.687Z,20.50
2018-06-10T17:47:21.453Z,21.20
2018-06-10T17:49:49.897Z,20.17
2018-06-10T17:52:18.441Z,21.73
2018-06-10T17:54:47.061Z,21.07
2018-06-10T17:57:15.828Z,20.53
2018-06-10T17:59:44.348Z,23.33
2018-06-10T18:02:12.798Z,20.50
2018-06-10T18:04:41.376Z,20.07
2018-06-10T18:07:10.205Z,19.97
2018-06-10T18:09:38.868Z,24.67
2018-06-10T18:12:07.329Z,22.60
2018-06-10T18:14:35.879Z,21.43
2018-06-10T18:17:04.483Z,20.53
2018-06-10T18:19:33.152Z,20.60
2018-06-10T18:22:01.718Z,20.77
2018-06-10T18:24:30.389Z,20.13
2018-06-10T18:27:00.295Z,21.03
2018-06-10T18:29:29.993Z,19.07
2018-06-10T18:31:58.504Z,21.07
2018-06-10T18:34:26.949Z,21.77
2018-06-10T18:36:55.682Z,23.23
2018-06-10T18:39:24.185Z,20.87
2018-06-10T18:41:52.908Z,21.50
2018-06-10T18:44:21.466Z,24.90
2018-06-10T18:46:50.013Z,22.03
2018-06-10T18:49:18.581Z,21.07
2018-06-10T18:51:47.040Z,24.40
2018-06-10T18:54:15.490Z,22.77
2018-06-10T18:56:44.009Z,20.80
2018-06-10T19:02:28.689Z,22.00
2018-06-10T19:04:57.277Z,19.33
2018-06-10T19:07:25.819Z,20.23
2018-06-10T19:09:54.308Z,20.07
2018-06-10T19:12:22.856Z,20.13
2018-06-10T19:14:51.391Z,20.63
2018-06-10T19:17:19.836Z,23.60
2018-06-10T19:19:50.621Z,20.20
2018-06-10T19:22:19.163Z,20.90
2018-06-10T19:24:47.652Z,19.30
2018-06-10T19:27:16.152Z,21.40
2018-06-10T19:29:44.638Z,23.20
2018-06-10T19:32:13.083Z,26.10
2018-06-10T19:34:41.654Z,22.47
2018-06-10T19:37:10.262Z,22.27
2018-06-10T19:39:38.736Z,22.63
2018-06-10T19:42:07.316Z,18.73
2018-06-10T19:44:35.860Z,26.93
2018-06-10T19:47:04.466Z,22.87
2018-06-10T19:49:33.014Z,21.07
2018-06-10T19:52:01.674Z,19.50
2018-06-10T19:54:30.258Z,24.23
2018-06-10T19:56:58.769Z,21.03
2018-06-10T19:59:27.187Z,27.03
2018-06-10T20:01:55.758Z,25.73
2018-06-10T20:04:24.235Z,26.03
2018-06-10T20:06:52.884Z,30.20
2018-06-10T20:09:21.301Z,25.00
2018-06-10T20:11:49.935Z,23.60
2018-06-10T20:14:18.333Z,25.80
2018-06-10T20:16:46.809Z,26.87
2018-06-10T20:19:15.461Z,29.57
2018-06-10T20:21:43.972Z,26.97
2018-06-10T20:24:12.476Z,27.90
2018-06-10T20:26:41.032Z,25.83
2018-06-10T20:29:09.892Z,25.53
2018-06-10T20:31:38.601Z,23.70
2018-06-10T20:34:07.121Z,28.90
2018-06-10T20:36:36.007Z,22.17
2018-06-10T20:39:06.431Z,22.70
2018-06-10T20:41:34.979Z,32.63
2018-06-10T20:44:03.520Z,20.73
2018-06-10T20:46:32.262Z,28.43
2018-06-10T20:49:02.197Z,22.00
2018-06-10T20:51:31.076Z,28.20
2018-06-10T20:53:59.658Z,22.33
2018-06-10T20:56:28.475Z,23.17
2018-06-10T20:58:57.061Z,21.63
2018-06-10T21:01:25.597Z,26.03
2018-06-10T21:03:54.233Z,22.73
2018-06-10T21:06:22.972Z,27.20
2018-06-10T21:08:51.690Z,24.80
2018-06-10T21:11:20.332Z,34.47
2018-06-10T21:13:51.909Z,22.10
2018-06-10T21:16:20.657Z,22.37
2018-06-10T21:18:49.238Z,31.17
2018-06-10T21:21:20.019Z,23.03
2018-06-10T21:23:52.458Z,25.67
2018-06-10T21:26:26.059Z,25.90
2018-06-10T21:28:56.684Z,23.03
2018-06-10T21:31:26.915Z,26.60
2018-06-10T21:34:00.225Z,25.90
2018-06-10T21:36:30.536Z,26.40
2018-06-10T21:39:03.935Z,27.67
2018-06-10T21:41:34.868Z,24.63
2018-06-10T21:44:12.982Z,32.20
2018-06-10T21:46:42.658Z,25.93
2018-06-10T21:49:13.531Z,38.27
2018-06-10T21:51:42.421Z,36.20
2018-06-10T21:54:13.272Z,25.03
2018-06-10T21:56:45.114Z,29.37
2018-06-10T21:59:15.534Z,28.57
2018-06-10T22:01:45.184Z,30.57
2018-06-10T22:04:14.957Z,25.80
2018-06-10T22:06:44.680Z,27.97
2018-06-10T22:09:14.783Z,27.30
2018-06-10T22:11:43.774Z,29.50
2018-06-10T22:14:13.689Z,28.17
2018-06-10T22:16:44.370Z,28.63
2018-06-10T22:19:16.283Z,26.87
2018-06-10T22:21:45.272Z,28.40
2018-06-10T22:24:15.316Z,29.30
2018-06-10T22:26:47.313Z,30.20
2018-06-10T22:29:17.331Z,30.33
2018-06-10T22:31:48.886Z,28.87
2018-06-10T22:34:19.415Z,33.13
2018-06-10T22:36:48.364Z,28.87
2018-06-10T22:39:18.697Z,30.37
2018-06-10T22:41:51.694Z,33.20
2018-06-10T22:44:21.664Z,34.80
2018-06-10T22:46:56.731Z,31.53
2018-06-10T22:49:27.177Z,29.53
2018-06-10T22:51:59.547Z,28.90
2018-06-10T22:54:46.054Z,30.23
2018-06-10T22:57:23.442Z,34.20
2018-06-10T23:00:00.729Z,29.43
2018-06-10T23:02:32.181Z,28.37
2018-06-10T23:05:22.473Z,35.00
2018-06-10T23:07:52.938Z,37.97
2018-06-10T23:10:22.864Z,34.93
2018-06-10T23:12:52.872Z,36.63
2018-06-10T23:15:32.067Z,42.27
2018-06-10T23:18:02.934Z,35.23
2018-06-10T23:20:37.877Z,32.47
2018-06-10T23:23:24.549Z,37.37
2018-06-10T23:25:55.485Z,35.80
2018-06-10T23:28:24.477Z,31.90
2018-06-10T23:30:53.984Z,43.00
2018-06-10T23:33:23.591Z,36.80
2018-06-10T23:35:53.608Z,33.77
2018-06-10T23:38:22.605Z,36.10
2018-06-10T23:40:52.927Z,34.53
2018-06-10T23:43:22.124Z,42.87
2018-06-10T23:45:52.450Z,35.30
2018-06-10T23:48:22.725Z,41.17
2018-06-10T23:50:54.305Z,38.33
2018-06-10T23:53:25.653Z,43.67
2018-06-10T23:55:58.970Z,43.83
2018-06-10T23:58:28.941Z,44.77
